CYFB

Details ICAO CYFB (YFB)
Name Iqaluit
Region Canada
Timezone America/Iqaluit (UTC-4.0)
Plans Departing 191
Arriving 253
Stats Elevation 109 ft / 33 m (AMSL)
Location 63.756600° -68.556100°
Runways 1
Magnetic Variation 27.215° W
Sunrise 2018-10-20 11:39:09 UTC / 2018-10-20 07:39:09 Local
Sunset 2018-10-20 21:01:08 UTC / 2018-10-20 17:01:08 Local
Advertisement - Login to hide

Runways

ID Width Length Bearing (true/mag) Surface Threshold Overrun Markings Lighting
17 197 ft / 60 m 8,559 ft / 2,609 m 135.63° / 162.85° ASPHALT 0 ft / 0 m 200 ft / 61 m APP CENTERLINE EDGE THRESHOLD MALSF
35 197 ft / 60 m 8,559 ft / 2,609 m 315.66° / 342.88° ASPHALT 0 ft / 0 m 239 ft / 73 m APP CENTERLINE EDGE THRESHOLD MALSF

Map

Weather


0- 5 10 15 20 25 30 35+ Temperature / °C

Clouds and Precipitation
Forecast for 2018-10-20 06:00 UTC. Updated 2 hours ago

Ground ~20,000 ft ~40,000 ft Winds

METAR

CYFB 200500Z 34005KT 15SM FEW060 M15/M17 A2972 RMK SC1 SC TR SLP068

TAF

TAF CYFB 192338Z 2000/2024 VRB03KT P6SM FEW030 FEW060 BECMG 2010/2012 09008KT FM201600 09012KT P6SM BKN030 TEMPO 2016/2024 3SM -SN BKN015 RMK NXT FCST BY 200600Z

Frequencies

Unicom 126.70 MHz MULTICOM
Recorded 122.20 MHz FSS
Recorded 126.70 MHz FSS
Unicom 126.90 MHz MULTICOM
Tower 134.55 MHz CNTR
Warning: Do not use this data for real-world aviation or navigation. No guarantee of current accuracy is given.